createdAt,value
2022-12-03T00:00:47.460Z,101330.73
2022-12-03T00:01:47.447Z,101335.28
2022-12-03T00:02:47.963Z,101332.9
2022-12-03T00:03:47.630Z,101335.93
2022-12-03T00:04:47.506Z,101330.53
2022-12-03T00:05:49.027Z,101331.16
2022-12-03T00:06:47.538Z,101332.63
2022-12-03T00:07:47.599Z,101331.66
2022-12-03T00:08:47.539Z,101329.5
2022-12-03T00:09:47.572Z,101326.78
2022-12-03T00:10:47.633Z,101326.92
2022-12-03T00:11:47.592Z,101325.28
2022-12-03T00:12:47.618Z,101326.33
2022-12-03T00:13:47.618Z,101327.73
2022-12-03T00:14:47.645Z,101325.53
2022-12-03T00:15:47.687Z,101321.68
2022-12-03T00:16:47.840Z,101321.48
2022-12-03T00:17:47.677Z,101321.44
2022-12-03T00:18:47.754Z,101319.39
2022-12-03T00:19:47.717Z,101320.72
2022-12-03T00:20:47.740Z,101323.38
2022-12-03T00:21:47.788Z,101316.08
2022-12-03T00:22:47.782Z,101320.2
2022-12-03T00:23:47.800Z,101321.69
2022-12-03T00:24:47.782Z,101324.33
2022-12-03T00:25:47.790Z,101323.56
2022-12-03T00:26:47.908Z,101323.33
2022-12-03T00:27:47.875Z,101325.97
2022-12-03T00:28:47.865Z,101322.56
2022-12-03T00:29:47.893Z,101327.61
2022-12-03T00:30:47.972Z,101331.78
2022-12-03T00:31:47.939Z,101326.3
2022-12-03T00:32:47.937Z,101323.65
2022-12-03T00:33:47.933Z,101327.78
2022-12-03T00:34:47.958Z,101324.61
2022-12-03T00:35:48.355Z,101330.78
2022-12-03T00:36:48.315Z,101324.13
2022-12-03T00:37:48.035Z,101329.78
2022-12-03T00:38:48.020Z,101325.25
2022-12-03T00:39:48.190Z,101324.17
2022-12-03T00:40:48.620Z,101320.92
2022-12-03T00:41:48.079Z,101320.64
2022-12-03T00:42:48.122Z,101318.16
2022-12-03T00:43:48.080Z,101321.44
2022-12-03T00:44:48.111Z,101320.72
2022-12-03T00:45:48.116Z,101319.31
2022-12-03T00:46:48.280Z,101323.52
2022-12-03T00:47:48.190Z,101322.99
2022-12-03T00:48:48.323Z,101320.59
2022-12-03T00:49:48.204Z,101323.19
2022-12-03T00:50:48.194Z,101320.68
2022-12-03T00:51:48.200Z,101318.4
2022-12-03T00:52:49.039Z,101314.83
2022-12-03T00:53:48.275Z,101319.31
2022-12-03T00:54:48.379Z,101318.23
2022-12-03T00:55:48.326Z,101315.95
2022-12-03T00:56:48.313Z,101315.58
2022-12-03T00:57:48.337Z,101317.61
2022-12-03T00:58:48.350Z,101314.73
2022-12-03T00:59:48.369Z,101311.13
2022-12-03T01:00:48.375Z,101311.88
2022-12-03T01:01:48.400Z,101311.64
2022-12-03T01:02:48.410Z,101309.16
2022-12-03T01:03:48.482Z,101313.48
2022-12-03T01:04:48.539Z,101306.08
2022-12-03T01:05:48.461Z,101311.45
2022-12-03T01:06:48.464Z,101307.03
2022-12-03T01:07:48.571Z,101308.33
2022-12-03T01:08:48.539Z,101308.77
2022-12-03T01:09:48.527Z,101305.88
2022-12-03T01:10:48.553Z,101306.64
2022-12-03T01:11:48.532Z,101308
2022-12-03T01:12:48.594Z,101308.45
2022-12-03T01:13:48.591Z,101306.03
2022-12-03T01:14:48.594Z,101309.17
2022-12-03T01:15:48.621Z,101309.52
2022-12-03T01:16:48.650Z,101306.02
2022-12-03T01:17:48.630Z,101306.46
2022-12-03T01:18:48.711Z,101304.07
2022-12-03T01:19:48.821Z,101306.06
2022-12-03T01:20:48.744Z,101307.34
2022-12-03T01:21:49.759Z,101303.83
2022-12-03T01:22:48.741Z,101298.48
2022-12-03T01:23:48.761Z,101299.1
2022-12-03T01:24:48.789Z,101299.49
2022-12-03T01:25:48.755Z,101303.03
2022-12-03T01:26:48.836Z,101299.28
2022-12-03T01:27:48.807Z,101299.13
2022-12-03T01:28:48.920Z,101305.31
2022-12-03T01:29:48.971Z,101302.38
2022-12-03T01:30:48.906Z,101307.2
2022-12-03T01:31:49.008Z,101304.27
2022-12-03T01:32:48.884Z,101304.92
2022-12-03T01:33:48.931Z,101304.99
2022-12-03T01:34:50.470Z,101309.62
2022-12-03T01:35:48.925Z,101306.95
2022-12-03T01:36:48.937Z,101311.38
2022-12-03T01:37:48.969Z,101310.7
2022-12-03T01:38:48.981Z,101311.34
2022-12-03T01:39:49.277Z,101313.62
2022-12-03T01:40:49.263Z,101313.84
2022-12-03T01:41:49.893Z,101316.3
2022-12-03T01:42:49.049Z,101317.73
2022-12-03T01:43:49.829Z,101316.91
2022-12-03T01:44:50.874Z,101316.95
2022-12-03T01:45:49.132Z,101314.66
2022-12-03T01:46:50.645Z,101316.26
2022-12-03T01:47:49.144Z,101315.06
2022-12-03T01:48:50.376Z,101315.19
2022-12-03T01:50:49.886Z,101314.3
2022-12-03T01:51:51.333Z,101316.58
2022-12-03T01:52:49.936Z,101315.53
2022-12-03T01:53:50.006Z,101314.57
2022-12-03T01:54:52.340Z,101312.9
2022-12-03T01:55:50.042Z,101312.98
2022-12-03T01:56:49.953Z,101313.83
2022-12-03T01:57:51.263Z,101317.63
2022-12-03T01:58:50.037Z,101314.93
2022-12-03T01:59:50.702Z,101313.84
2022-12-03T02:00:50.055Z,101312.45
2022-12-03T02:01:50.098Z,101312.45
2022-12-03T02:02:54.173Z,101310.38
2022-12-03T02:03:50.479Z,101312.59
2022-12-03T02:04:51.395Z,101313.43
2022-12-03T02:05:50.518Z,101311.75
2022-12-03T02:06:50.606Z,101308.91
2022-12-03T02:07:50.511Z,101315.35
2022-12-03T02:08:50.478Z,101311.27
2022-12-03T02:09:50.953Z,101314.31
2022-12-03T02:10:50.658Z,101305.57
2022-12-03T02:11:50.537Z,101311.91
2022-12-03T02:13:54.256Z,101311.27
2022-12-03T02:14:53.280Z,101314.88
2022-12-03T02:15:52.565Z,101313.78
2022-12-03T02:16:52.474Z,101315.51
2022-12-03T02:17:52.939Z,101310.23
2022-12-03T02:18:52.515Z,101312.49
2022-12-03T02:19:53.154Z,101309.98
2022-12-03T02:22:01.567Z,101304.02
2022-12-03T02:25:11.180Z,101310.61
2022-12-03T02:26:07.468Z,101311.81
2022-12-03T02:27:07.447Z,101310.94
2022-12-03T02:28:08.369Z,101309.45
2022-12-03T02:29:07.490Z,101309.95
2022-12-03T02:30:08.485Z,101313.86
2022-12-03T02:31:07.926Z,101309.89
2022-12-03T02:32:07.560Z,101316.95
2022-12-03T02:33:07.610Z,101312.02
2022-12-03T02:34:08.146Z,101317.8
2022-12-03T02:36:10.069Z,101313.5
2022-12-03T02:39:13.786Z,101315.83
2022-12-03T02:41:19.006Z,101314
2022-12-03T02:42:18.077Z,101315.72
2022-12-03T02:43:19.643Z,101310.51
2022-12-03T02:44:17.557Z,101309.62
2022-12-03T02:46:20.904Z,101309.98
2022-12-03T02:47:21.324Z,101303.25
2022-12-03T02:48:26.564Z,101308.53
2022-12-03T02:49:23.241Z,101309.78
2022-12-03T02:50:26.848Z,101302.16
2022-12-03T02:51:23.906Z,101301.16
2022-12-03T02:52:23.792Z,101302.4
2022-12-03T02:53:26.271Z,101299.96
2022-12-03T02:54:23.978Z,101302.23
2022-12-03T02:55:24.012Z,101299.36
2022-12-03T02:56:25.575Z,101300.67
2022-12-03T02:57:23.824Z,101304.64
2022-12-03T02:58:25.365Z,101297.47
2022-12-03T02:59:23.907Z,101296.75
2022-12-03T03:00:23.877Z,101295.75
2022-12-03T03:01:24.032Z,101298.16
2022-12-03T03:02:23.908Z,101289.19
2022-12-03T03:03:24.559Z,101288.5
2022-12-03T03:04:24.205Z,101296.27
2022-12-03T03:05:24.143Z,101291.91
2022-12-03T03:06:24.202Z,101293.07
2022-12-03T03:07:23.923Z,101291.66
2022-12-03T03:08:25.008Z,101297.88
2022-12-03T03:09:23.990Z,101300.06
2022-12-03T03:10:24.406Z,101297.39
2022-12-03T03:11:24.455Z,101292.91
2022-12-03T03:12:23.877Z,101296.39
2022-12-03T03:13:24.222Z,101298.71
2022-12-03T03:14:23.885Z,101304.56
2022-12-03T03:15:24.004Z,101295.16
2022-12-03T03:16:23.992Z,101296.95
2022-12-03T03:17:24.038Z,101294.47
2022-12-03T03:18:24.169Z,101301.16
2022-12-03T03:19:26.824Z,101300.81
2022-12-03T03:20:23.980Z,101302.26
2022-12-03T03:21:24.010Z,101298.8
2022-12-03T03:22:34.083Z,101299.45
2022-12-03T03:23:25.767Z,101303.05
2022-12-03T03:24:26.142Z,101299.43
2022-12-03T03:25:25.851Z,101304.04
2022-12-03T03:26:25.955Z,101301.02
2022-12-03T03:27:26.163Z,101301.32
2022-12-03T03:28:26.698Z,101307.89
2022-12-03T03:29:26.090Z,101304.5
2022-12-03T03:30:25.948Z,101302.14
2022-12-03T03:31:25.989Z,101298.34
2022-12-03T03:32:27.928Z,101293
2022-12-03T03:33:26.086Z,101292.47
2022-12-03T03:34:26.790Z,101292.73
2022-12-03T03:35:26.099Z,101297.92
2022-12-03T03:36:26.115Z,101294.3
2022-12-03T03:37:27.190Z,101295.12
2022-12-03T03:38:26.838Z,101296.2
2022-12-03T03:39:26.135Z,101293.97
2022-12-03T03:40:26.376Z,101298.92
2022-12-03T03:41:26.702Z,101294.2
2022-12-03T03:42:26.353Z,101303.7
2022-12-03T03:43:26.280Z,101296.25
2022-12-03T03:44:26.177Z,101298.03
2022-12-03T03:45:29.369Z,101298.79
2022-12-03T03:46:27.638Z,101300.67
2022-12-03T03:47:26.710Z,101298.83
2022-12-03T03:48:26.561Z,101298.95
2022-12-03T03:49:26.844Z,101292.98
2022-12-03T03:50:27.804Z,101295.03
2022-12-03T03:51:26.846Z,101289.91
2022-12-03T03:52:26.828Z,101295.34
2022-12-03T03:53:26.767Z,101289.28
2022-12-03T03:54:26.868Z,101293.02
2022-12-03T03:55:26.880Z,101286.3
2022-12-03T03:56:26.924Z,101287.02
2022-12-03T03:57:26.727Z,101288.02
2022-12-03T03:58:26.718Z,101289.39
2022-12-03T03:59:26.732Z,101291.34
2022-12-03T04:00:26.739Z,101285.25
2022-12-03T04:01:27.581Z,101285.69
2022-12-03T04:02:27.699Z,101287.62
2022-12-03T04:03:27.038Z,101280.64
2022-12-03T04:04:27.649Z,101281.08
2022-12-03T04:05:27.564Z,101282.6
2022-12-03T04:06:27.130Z,101282.48
2022-12-03T04:07:26.910Z,101282.28
2022-12-03T04:08:27.878Z,101277.49
2022-12-03T04:09:26.849Z,101282.98
2022-12-03T04:10:26.888Z,101284.5
2022-12-03T04:11:26.882Z,101282.78
2022-12-03T04:12:26.865Z,101283.1
2022-12-03T04:13:26.921Z,101280.64
2022-12-03T04:14:26.941Z,101280.96
2022-12-03T04:15:27.254Z,101278.79
2022-12-03T04:16:27.032Z,101281.09
2022-12-03T04:17:26.920Z,101275.75
2022-12-03T04:18:27.128Z,101278.19
2022-12-03T04:19:26.988Z,101283.22
2022-12-03T04:20:26.997Z,101277.12
2022-12-03T04:21:26.995Z,101275.91
2022-12-03T04:22:27.018Z,101276.81
2022-12-03T04:23:30.886Z,101280.57
2022-12-03T04:24:27.895Z,101282.4
2022-12-03T04:25:27.880Z,101283.56
2022-12-03T04:26:28.206Z,101280.97
2022-12-03T04:27:27.902Z,101281.41
2022-12-03T04:28:27.864Z,101275.94
2022-12-03T04:29:27.925Z,101282.48
2022-12-03T04:30:27.991Z,101283.67
2022-12-03T04:31:27.911Z,101283.99
2022-12-03T04:32:27.939Z,101281.5
2022-12-03T04:33:27.938Z,101285.83
2022-12-03T04:34:28.100Z,101284.56
2022-12-03T04:35:28.051Z,101281.75
2022-12-03T04:36:27.996Z,101281.03
2022-12-03T04:37:28.044Z,101285.7
2022-12-03T04:38:27.983Z,101279.85
2022-12-03T04:39:28.095Z,101284.06
2022-12-03T04:40:28.079Z,101284.49
2022-12-03T04:41:28.332Z,101285.9
2022-12-03T04:42:28.504Z,101282.8
2022-12-03T04:43:29.422Z,101286.22
2022-12-03T04:44:28.669Z,101284.09
2022-12-03T04:45:28.599Z,101288.52
2022-12-03T04:46:28.667Z,101284.09
2022-12-03T04:47:28.623Z,101286.03
2022-12-03T04:48:28.606Z,101283.28
2022-12-03T04:49:28.631Z,101278.75
2022-12-03T04:50:28.638Z,101282.48
2022-12-03T04:51:28.628Z,101286.33
2022-12-03T04:52:28.589Z,101286.65
2022-12-03T04:53:28.680Z,101281.05
2022-12-03T04:54:28.913Z,101278.52
2022-12-03T04:55:28.682Z,101286.54
2022-12-03T04:56:28.712Z,101281.25
2022-12-03T04:57:28.707Z,101286.69
2022-12-03T04:58:28.713Z,101279.73
2022-12-03T04:59:28.990Z,101278.6
2022-12-03T05:00:28.789Z,101282.05
2022-12-03T05:01:28.981Z,101282.08
2022-12-03T05:02:28.842Z,101285.66
2022-12-03T05:03:28.769Z,101279.41
2022-12-03T05:04:28.816Z,101289.97
2022-12-03T05:05:28.898Z,101293.95
2022-12-03T05:06:28.844Z,101291.17
2022-12-03T05:07:28.923Z,101291.47
2022-12-03T05:08:28.860Z,101295.59
2022-12-03T05:09:28.983Z,101288.89
2022-12-03T05:10:28.884Z,101294.66
2022-12-03T05:11:28.873Z,101293.16
2022-12-03T05:12:28.907Z,101291.37
2022-12-03T05:13:28.933Z,101289.95
2022-12-03T05:14:28.982Z,101293.38
2022-12-03T05:15:28.940Z,101297.91
2022-12-03T05:16:29.056Z,101295.64
2022-12-03T05:17:28.963Z,101299.3
2022-12-03T05:18:28.952Z,101298.14
2022-12-03T05:19:29.048Z,101297.05
2022-12-03T05:20:29.031Z,101293.59
2022-12-03T05:21:29.040Z,101293.55
2022-12-03T05:22:29.047Z,101292.05
2022-12-03T05:23:29.049Z,101294.3
2022-12-03T05:24:29.131Z,101297.27
2022-12-03T05:25:29.079Z,101292.89
2022-12-03T05:26:29.219Z,101294.52
2022-12-03T05:27:29.088Z,101291.41
2022-12-03T05:28:29.108Z,101290.14
2022-12-03T05:29:29.164Z,101288.86
2022-12-03T05:30:29.442Z,101294.06
2022-12-03T05:31:29.192Z,101292.98
2022-12-03T05:32:29.195Z,101293.88
2022-12-03T05:33:29.211Z,101294.27
2022-12-03T05:34:29.336Z,101293.62
2022-12-03T05:35:29.239Z,101293.8
2022-12-03T05:36:29.235Z,101297.16
2022-12-03T05:37:29.260Z,101298.08
2022-12-03T05:38:29.222Z,101295.8
2022-12-03T05:39:29.279Z,101299.75
2022-12-03T05:40:29.215Z,101305.89
2022-12-03T05:41:29.366Z,101300.45
2022-12-03T05:42:29.269Z,101302.58
2022-12-03T05:43:29.277Z,101301.08
2022-12-03T05:44:29.288Z,101299.42
2022-12-03T05:45:33.454Z,101305.06
2022-12-03T05:46:30.255Z,101306.6
2022-12-03T05:47:30.146Z,101302.16
2022-12-03T05:48:30.101Z,101306.49
2022-12-03T05:49:30.148Z,101308.73
2022-12-03T05:50:31.447Z,101305.05
2022-12-03T05:51:30.120Z,101300.88
2022-12-03T05:52:30.164Z,101305.93
2022-12-03T05:53:30.214Z,101302.72
2022-12-03T05:54:30.217Z,101302.44
2022-12-03T05:55:30.541Z,101307.73
2022-12-03T05:56:30.209Z,101304.89
2022-12-03T05:57:30.240Z,101303.33
2022-12-03T05:58:30.313Z,101305.94
2022-12-03T05:59:30.332Z,101301.36
2022-12-03T06:00:31.919Z,101306.77
2022-12-03T06:01:30.315Z,101304.94
2022-12-03T06:02:30.534Z,101309.75
2022-12-03T06:03:30.476Z,101308.32
2022-12-03T06:04:30.343Z,101303.69
2022-12-03T06:05:30.383Z,101306.89
2022-12-03T06:06:30.364Z,101307.89
2022-12-03T06:07:30.493Z,101303.45
2022-12-03T06:08:30.379Z,101313.89
2022-12-03T06:09:30.493Z,101310.23
2022-12-03T06:10:30.493Z,101309.53
2022-12-03T06:11:30.737Z,101309.14
2022-12-03T06:12:30.419Z,101310.72
2022-12-03T06:13:30.548Z,101311.69
2022-12-03T06:14:30.493Z,101314.95
2022-12-03T06:15:30.548Z,101320.52
2022-12-03T06:16:30.615Z,101314.98
2022-12-03T06:17:30.789Z,101310.17
2022-12-03T06:18:30.506Z,101311.72
2022-12-03T06:19:30.688Z,101308.97
2022-12-03T06:20:30.567Z,101307.15
2022-12-03T06:21:30.491Z,101309.28
2022-12-03T06:22:30.722Z,101308.88
2022-12-03T06:23:30.647Z,101308.8
2022-12-03T06:24:30.585Z,101309.45
2022-12-03T06:25:30.648Z,101311.77
2022-12-03T06:26:30.641Z,101311.44
2022-12-03T06:27:30.622Z,101315.53
2022-12-03T06:28:30.639Z,101313.92
2022-12-03T06:29:30.766Z,101312.48
2022-12-03T06:30:30.714Z,101313.21
2022-12-03T06:31:30.746Z,101312.11
2022-12-03T06:32:30.708Z,101310.99
2022-12-03T06:33:30.697Z,101309.89
2022-12-03T06:34:30.833Z,101313.03
2022-12-03T06:35:30.759Z,101314.36
2022-12-03T06:36:30.723Z,101304.94
2022-12-03T06:37:30.824Z,101305.43
2022-12-03T06:38:30.809Z,101309.56
2022-12-03T06:39:30.758Z,101301.13
2022-12-03T06:40:30.862Z,101299.05
2022-12-03T06:41:30.929Z,101303.55
2022-12-03T06:42:31.303Z,101301
2022-12-03T06:43:31.299Z,101299.47
2022-12-03T06:44:31.387Z,101297.76
2022-12-03T06:45:31.340Z,101297.48
2022-12-03T06:46:31.555Z,101296.59
2022-12-03T06:47:31.374Z,101293.16
2022-12-03T06:48:31.373Z,101296.19
2022-12-03T06:49:31.403Z,101296.08
2022-12-03T06:50:31.392Z,101293.64
2022-12-03T06:51:31.421Z,101290.09
2022-12-03T06:52:31.414Z,101286.4
2022-12-03T06:53:31.491Z,101301.62
2022-12-03T06:54:31.558Z,101300.63
2022-12-03T06:55:31.463Z,101300.27
2022-12-03T06:56:35.998Z,101296.09
2022-12-03T06:57:34.664Z,101299.13
2022-12-03T06:58:34.632Z,101294.68
2022-12-03T06:59:34.645Z,101295.66
2022-12-03T07:00:34.685Z,101295
2022-12-03T07:01:34.820Z,101297.09
2022-12-03T07:02:34.952Z,101298.88
2022-12-03T07:03:34.714Z,101290.36
2022-12-03T07:04:34.794Z,101294.42
2022-12-03T07:05:34.771Z,101296.48
2022-12-03T07:06:34.779Z,101303.77
2022-12-03T07:07:34.902Z,101299.84
2022-12-03T07:08:34.968Z,101299.46
2022-12-03T07:09:34.814Z,101298.92
2022-12-03T07:10:34.769Z,101301.15
2022-12-03T07:11:34.884Z,101303.71
2022-12-03T07:12:34.955Z,101301.16
2022-12-03T07:13:34.938Z,101303.22
2022-12-03T07:14:34.897Z,101303.55
2022-12-03T07:15:34.952Z,101305.41
2022-12-03T07:16:35.787Z,101304.99
2022-12-03T07:17:34.948Z,101302.02
2022-12-03T07:18:34.966Z,101306.72
2022-12-03T07:19:34.888Z,101302.62
2022-12-03T07:20:35.098Z,101305.95
2022-12-03T07:21:34.992Z,101303.56
2022-12-03T07:22:34.949Z,101304.33
2022-12-03T07:23:35.194Z,101304.47
2022-12-03T07:24:35.000Z,101305.42
2022-12-03T07:25:35.002Z,101304.84
2022-12-03T07:26:35.036Z,101306.38
2022-12-03T07:27:35.042Z,101306.52
2022-12-03T07:28:35.048Z,101307.72
2022-12-03T07:29:35.276Z,101306.98
2022-12-03T07:30:35.125Z,101302.95
2022-12-03T07:31:35.199Z,101305.98
2022-12-03T07:32:35.096Z,101305.67
2022-12-03T07:33:35.094Z,101297.83
2022-12-03T07:34:35.149Z,101303.57
2022-12-03T07:35:35.138Z,101306.64
2022-12-03T07:36:35.135Z,101302.8
2022-12-03T07:37:35.177Z,101309.67
2022-12-03T07:38:35.203Z,101310.38
2022-12-03T07:39:36.195Z,101305.2
2022-12-03T07:40:35.202Z,101300.94
2022-12-03T07:41:35.354Z,101305.88
2022-12-03T07:42:35.185Z,101305.58
2022-12-03T07:43:35.253Z,101310.79
2022-12-03T07:44:35.377Z,101310.44
2022-12-03T07:45:35.260Z,101310.83
2022-12-03T07:46:35.358Z,101304.61
2022-12-03T07:47:35.293Z,101308.9
2022-12-03T07:48:35.316Z,101307.3
2022-12-03T07:49:35.334Z,101309.95
2022-12-03T07:50:35.322Z,101308.64
2022-12-03T07:51:35.369Z,101304.83
2022-12-03T07:52:35.303Z,101306.81
2022-12-03T07:53:35.345Z,101302.25
2022-12-03T07:54:35.387Z,101311.05
2022-12-03T07:55:35.388Z,101312.42
2022-12-03T07:56:35.564Z,101312.3
2022-12-03T07:57:35.409Z,101312.09
2022-12-03T07:58:35.422Z,101314.17
2022-12-03T07:59:35.421Z,101315.39
2022-12-03T08:00:35.523Z,101311.45
2022-12-03T08:01:35.719Z,101312.58
2022-12-03T08:02:35.566Z,101316.91
2022-12-03T08:03:35.627Z,101313.64
2022-12-03T08:04:35.559Z,101308.98
2022-12-03T08:05:35.577Z,101312.69
2022-12-03T08:06:35.586Z,101313.34
2022-12-03T08:07:35.599Z,101310.7
2022-12-03T08:08:35.555Z,101310.27
2022-12-03T08:09:35.613Z,101307.12
2022-12-03T08:10:35.666Z,101306.29
2022-12-03T08:11:35.671Z,101310.55
2022-12-03T08:12:37.853Z,101313.39
2022-12-03T08:13:35.652Z,101310.25
2022-12-03T08:14:35.665Z,101308.22
2022-12-03T08:15:39.490Z,101306.67
2022-12-03T08:16:37.989Z,101309.14
2022-12-03T08:17:36.715Z,101307.06
2022-12-03T08:18:36.649Z,101305.73
2022-12-03T08:19:36.630Z,101305.52
2022-12-03T08:20:40.169Z,101308.12
2022-12-03T08:21:37.252Z,101306.88
2022-12-03T08:22:36.870Z,101304.7
2022-12-03T08:23:36.907Z,101306.16
2022-12-03T08:24:36.934Z,101303.92
2022-12-03T08:25:36.925Z,101300
2022-12-03T08:26:36.918Z,101300.46
2022-12-03T08:27:36.928Z,101304.77
2022-12-03T08:28:36.978Z,101307.75
2022-12-03T08:29:37.000Z,101307.75
2022-12-03T08:30:37.119Z,101302.3
2022-12-03T08:31:37.110Z,101296.11
2022-12-03T08:32:37.064Z,101301.56
2022-12-03T08:33:40.141Z,101300.52
2022-12-03T08:34:41.052Z,101296.78
2022-12-03T08:35:37.838Z,101299.62
2022-12-03T08:36:37.808Z,101300.34
2022-12-03T08:37:37.998Z,101302.59
2022-12-03T08:38:37.843Z,101300.11
2022-12-03T08:39:44.082Z,101299.16
2022-12-03T08:40:41.791Z,101300.52
2022-12-03T08:41:40.868Z,101296.76
2022-12-03T08:42:40.845Z,101300.73
2022-12-03T08:43:41.312Z,101298.23
2022-12-03T08:44:40.872Z,101301.02
2022-12-03T08:45:41.184Z,101298.09
2022-12-03T08:46:40.858Z,101298.61
2022-12-03T08:47:40.911Z,101298.47
2022-12-03T08:48:46.966Z,101296.28
2022-12-03T08:49:49.938Z,101297.8
2022-12-03T08:50:46.739Z,101299.59
2022-12-03T08:51:46.715Z,101296.12
2022-12-03T08:52:46.676Z,101294.38
2022-12-03T08:53:50.691Z,101300.21
2022-12-03T08:54:54.614Z,101301.67
2022-12-03T08:55:52.361Z,101301.73
2022-12-03T08:56:51.696Z,101298.42
2022-12-03T08:57:51.666Z,101298.11
2022-12-03T08:58:58.222Z,101299.75
2022-12-03T09:00:03.846Z,101303.06
2022-12-03T09:01:00.184Z,101302.3
2022-12-03T09:01:58.116Z,101304.77
2022-12-03T09:02:59.765Z,101306.47
2022-12-03T09:04:02.433Z,101301.53
2022-12-03T09:05:02.789Z,101304.28
2022-12-03T09:05:59.598Z,101301.37
2022-12-03T09:06:59.522Z,101302.38
2022-12-03T09:07:59.620Z,101296.79
2022-12-03T09:09:03.843Z,101300.12
2022-12-03T09:10:04.961Z,101295.9
2022-12-03T09:11:03.383Z,101294.56
2022-12-03T09:12:03.702Z,101297.24
2022-12-03T09:13:03.740Z,101297.06
2022-12-03T09:14:03.751Z,101298.86
2022-12-03T09:15:03.627Z,101298.77
2022-12-03T09:16:03.833Z,101298.79
2022-12-03T09:17:03.578Z,101300.38
2022-12-03T09:18:03.805Z,101297.88
2022-12-03T09:19:03.965Z,101298.89
2022-12-03T09:20:04.060Z,101293.98
2022-12-03T09:21:03.929Z,101295.75
2022-12-03T09:22:03.578Z,101298.67
2022-12-03T09:23:03.616Z,101294.39
2022-12-03T09:24:03.842Z,101299.89
2022-12-03T09:25:03.941Z,101301.88
2022-12-03T09:26:03.643Z,101300.09
2022-12-03T09:27:03.706Z,101305.17
2022-12-03T09:28:04.037Z,101302.36
2022-12-03T09:29:08.945Z,101303.08
2022-12-03T09:30:08.812Z,101302.06
2022-12-03T09:31:08.489Z,101301.16
2022-12-03T09:32:10.570Z,101304.46
2022-12-03T09:33:10.560Z,101300.95
2022-12-03T09:34:10.651Z,101299.28
2022-12-03T09:35:10.620Z,101303.08
2022-12-03T09:36:10.637Z,101301.34
2022-12-03T09:37:10.526Z,101302.95
2022-12-03T09:38:10.660Z,101301.85
2022-12-03T09:39:10.572Z,101297.61
2022-12-03T09:40:11.220Z,101303.97
2022-12-03T09:41:10.599Z,101298.91
2022-12-03T09:42:11.110Z,101301.83
2022-12-03T09:43:11.125Z,101298.92
2022-12-03T09:44:17.417Z,101294.45
2022-12-03T09:45:14.935Z,101294.9
2022-12-03T09:46:14.647Z,101296.73
2022-12-03T09:47:14.590Z,101293.66
2022-12-03T09:48:18.666Z,101295.91
2022-12-03T09:49:16.468Z,101293.05
2022-12-03T09:50:18.781Z,101289.42
2022-12-03T09:51:15.477Z,101290.5
2022-12-03T09:52:21.077Z,101290.09
2022-12-03T09:53:20.624Z,101291.95
2022-12-03T09:54:21.483Z,101292.44
2022-12-03T09:55:24.129Z,101292.22
2022-12-03T09:56:22.878Z,101291.43
2022-12-03T09:57:20.822Z,101294.17
2022-12-03T09:58:20.848Z,101289.84
2022-12-03T09:59:21.650Z,101290.59
2022-12-03T10:00:22.296Z,101292.52
2022-12-03T10:01:21.139Z,101291.34
2022-12-03T10:02:22.179Z,101294.28
2022-12-03T10:03:28.108Z,101292.18
2022-12-03T10:04:21.553Z,101292.91
2022-12-03T10:05:22.227Z,101286.53
2022-12-03T10:06:22.673Z,101285.58
2022-12-03T10:07:21.805Z,101287.24
2022-12-03T10:08:22.486Z,101287.63
2022-12-03T10:09:25.602Z,101290.98
2022-12-03T10:10:23.347Z,101293.39
2022-12-03T10:11:24.147Z,101286.84
2022-12-03T10:12:23.280Z,101284.26
2022-12-03T10:13:26.666Z,101284.34
2022-12-03T10:14:23.498Z,101287.89
2022-12-03T10:15:23.523Z,101287.16
2022-12-03T10:16:23.881Z,101291.76
2022-12-03T10:17:23.421Z,101287.52
2022-12-03T10:18:30.691Z,101291.09
2022-12-03T10:19:30.077Z,101288.08
2022-12-03T10:20:27.858Z,101291.78
2022-12-03T10:21:32.164Z,101291.8
2022-12-03T10:22:29.895Z,101290.32
2022-12-03T10:23:30.415Z,101290.66
2022-12-03T10:24:30.153Z,101290.38
2022-12-03T10:25:28.887Z,101291.03
2022-12-03T10:26:39.447Z,101289.88
2022-12-03T10:27:31.328Z,101285.86
2022-12-03T10:28:39.824Z,101288.02
2022-12-03T10:29:34.317Z,101283.79
2022-12-03T10:30:31.617Z,101284.57
2022-12-03T10:31:35.689Z,101286.47
2022-12-03T10:32:42.736Z,101282.26
2022-12-03T10:33:36.112Z,101287.38
2022-12-03T10:34:35.624Z,101288.11
2022-12-03T10:35:38.678Z,101284.86
2022-12-03T10:36:35.559Z,101284.79
2022-12-03T10:37:35.357Z,101284.17
2022-12-03T10:38:35.411Z,101285.19
2022-12-03T10:40:38.406Z,101286.57
2022-12-03T10:41:37.264Z,101279.44
2022-12-03T10:42:38.849Z,101283.02
2022-12-03T10:43:37.291Z,101284.03
2022-12-03T10:44:37.303Z,101279.3
2022-12-03T10:45:37.310Z,101284.08
2022-12-03T10:46:37.440Z,101280.5
2022-12-03T10:47:37.548Z,101281.31
2022-12-03T10:48:37.948Z,101277.16
2022-12-03T10:49:37.854Z,101283.93
2022-12-03T10:50:37.679Z,101279.78
2022-12-03T10:51:38.178Z,101277.27
2022-12-03T10:52:37.414Z,101278.77
2022-12-03T10:53:38.806Z,101277.31
2022-12-03T10:54:37.440Z,101278.1
2022-12-03T10:55:39.226Z,101277.11
2022-12-03T10:56:37.469Z,101276.82
2022-12-03T10:57:41.184Z,101277.41
2022-12-03T10:58:41.611Z,101277.64
2022-12-03T10:59:42.129Z,101276.91
2022-12-03T11:00:41.446Z,101277.17
2022-12-03T11:01:41.552Z,101274.61
2022-12-03T11:02:41.499Z,101279.97
2022-12-03T11:03:41.747Z,101273.73
2022-12-03T11:04:41.608Z,101275.31
2022-12-03T11:05:41.515Z,101277.44
2022-12-03T11:06:41.527Z,101274.98
2022-12-03T11:07:42.331Z,101275.47
2022-12-03T11:08:42.731Z,101270.31
2022-12-03T11:09:43.562Z,101273.37
2022-12-03T11:10:41.701Z,101273.58
2022-12-03T11:11:41.632Z,101275.38
2022-12-03T11:12:41.947Z,101273.72
2022-12-03T11:13:46.259Z,101272.1
2022-12-03T11:15:44.094Z,101271.24
2022-12-03T11:19:46.981Z,101267.62
2022-12-03T11:22:51.342Z,101261.91
2022-12-03T11:25:53.118Z,101264.98
2022-12-03T11:28:58.907Z,101258.08
2022-12-03T11:29:58.870Z,101261.1
2022-12-03T11:31:00.261Z,101262.91
2022-12-03T11:31:58.148Z,101258.29
2022-12-03T11:32:59.273Z,101258.45
2022-12-03T11:35:02.053Z,101264.81
2022-12-03T11:39:12.534Z,101261.72
2022-12-03T11:47:37.936Z,101258.45
2022-12-03T11:48:42.037Z,101259.32
2022-12-03T11:49:39.256Z,101255.41
2022-12-03T11:51:43.859Z,101256.48
2022-12-03T11:52:41.954Z,101258.8
2022-12-03T11:53:40.462Z,101255.2
2022-12-03T11:54:40.460Z,101260.44
2022-12-03T11:55:42.003Z,101258.52
2022-12-03T11:56:43.733Z,101265.14
2022-12-03T11:57:40.515Z,101260.52
2022-12-03T11:58:42.816Z,101266.38
2022-12-03T12:00:50.419Z,101261.81
2022-12-03T12:01:47.401Z,101259.42
2022-12-03T12:02:47.987Z,101260.91
2022-12-03T12:03:49.119Z,101258.09